sensor_id;sensor_type;location;lat;lon;timestamp;temperature;humidity
13944;DHT22;7044;53.286;8.534;2024-01-30T00:00:04;4.50;99.90
13944;DHT22;7044;53.286;8.534;2024-01-30T00:02:32;5.80;99.90
13944;DHT22;7044;53.286;8.534;2024-01-30T00:04:59;5.80;99.90
13944;DHT22;7044;53.286;8.534;2024-01-30T00:07:27;5.70;99.90
13944;DHT22;7044;53.286;8.534;2024-01-30T00:09:54;5.70;99.90
13944;DHT22;7044;53.286;8.534;2024-01-30T00:12:21;5.70;99.90
13944;DHT22;7044;53.286;8.534;2024-01-30T00:14:48;5.70;99.90
13944;DHT22;7044;53.286;8.534;2024-01-30T00:17:15;5.70;99.90
13944;DHT22;7044;53.286;8.534;2024-01-30T00:19:42;5.60;99.90
13944;DHT22;7044;53.286;8.534;2024-01-30T00:22:08;5.60;99.90
13944;DHT22;7044;53.286;8.534;2024-01-30T00:24:37;5.60;99.90
13944;DHT22;7044;53.286;8.534;2024-01-30T00:27:04;5.60;99.90
13944;DHT22;7044;53.286;8.534;2024-01-30T00:29:31;5.60;99.90
13944;DHT22;7044;53.286;8.534;2024-01-30T00:31:59;5.60;99.90
13944;DHT22;7044;53.286;8.534;2024-01-30T00:34:26;5.90;99.90
13944;DHT22;7044;53.286;8.534;2024-01-30T00:36:52;5.70;99.90
13944;DHT22;7044;53.286;8.534;2024-01-30T00:39:19;5.70;99.90
13944;DHT22;7044;53.286;8.534;2024-01-30T00:41:48;5.80;99.90
13944;DHT22;7044;53.286;8.534;2024-01-30T00:44:15;5.80;99.90
13944;DHT22;7044;53.286;8.534;2024-01-30T00:46:41;5.90;99.90
13944;DHT22;7044;53.286;8.534;2024-01-30T00:49:08;5.80;99.90
13944;DHT22;7044;53.286;8.534;2024-01-30T00:51:35;5.80;99.90
13944;DHT22;7044;53.286;8.534;2024-01-30T00:54:02;5.80;99.90
13944;DHT22;7044;53.286;8.534;2024-01-30T00:56:29;5.80;99.90
13944;DHT22;7044;53.286;8.534;2024-01-30T00:58:57;5.80;99.90
13944;DHT22;7044;53.286;8.534;2024-01-30T01:01:24;5.80;99.90
13944;DHT22;7044;53.286;8.534;2024-01-30T01:03:51;5.80;99.90
13944;DHT22;7044;53.286;8.534;2024-01-30T01:06:18;5.80;99.90
13944;DHT22;7044;53.286;8.534;2024-01-30T01:08:45;5.80;99.90
13944;DHT22;7044;53.286;8.534;2024-01-30T01:11:12;5.80;99.90
13944;DHT22;7044;53.286;8.534;2024-01-30T01:13:39;5.70;99.90
13944;DHT22;7044;53.286;8.534;2024-01-30T01:16:07;5.70;99.90
13944;DHT22;7044;53.286;8.534;2024-01-30T01:18:34;5.70;99.90
13944;DHT22;7044;53.286;8.534;2024-01-30T01:21:01;5.70;99.90
13944;DHT22;7044;53.286;8.534;2024-01-30T01:23:28;5.70;99.90
13944;DHT22;7044;53.286;8.534;2024-01-30T01:25:54;5.80;99.90
13944;DHT22;7044;53.286;8.534;2024-01-30T01:28:21;5.70;99.90
13944;DHT22;7044;53.286;8.534;2024-01-30T01:30:48;5.70;99.90
13944;DHT22;7044;53.286;8.534;2024-01-30T01:33:19;5.80;99.90
13944;DHT22;7044;53.286;8.534;2024-01-30T01:35:46;5.80;99.90
13944;DHT22;7044;53.286;8.534;2024-01-30T01:38:13;5.80;99.90
13944;DHT22;7044;53.286;8.534;2024-01-30T01:40:40;5.80;99.90
13944;DHT22;7044;53.286;8.534;2024-01-30T01:43:07;5.80;99.90
13944;DHT22;7044;53.286;8.534;2024-01-30T01:45:33;5.90;99.90
13944;DHT22;7044;53.286;8.534;2024-01-30T01:48:00;5.80;99.90
13944;DHT22;7044;53.286;8.534;2024-01-30T01:50:29;5.90;99.90
13944;DHT22;7044;53.286;8.534;2024-01-30T01:52:56;5.80;99.90
13944;DHT22;7044;53.286;8.534;2024-01-30T01:55:23;5.90;99.90
13944;DHT22;7044;53.286;8.534;2024-01-30T01:57:52;5.90;99.90
13944;DHT22;7044;53.286;8.534;2024-01-30T02:00:20;6.00;99.90
13944;DHT22;7044;53.286;8.534;2024-01-30T02:02:47;5.90;99.90
13944;DHT22;7044;53.286;8.534;2024-01-30T02:05:14;5.40;99.90
13944;DHT22;7044;53.286;8.534;2024-01-30T02:07:43;5.90;99.90
13944;DHT22;7044;53.286;8.534;2024-01-30T02:10:10;5.90;99.90
13944;DHT22;7044;53.286;8.534;2024-01-30T02:12:37;5.90;99.90
13944;DHT22;7044;53.286;8.534;2024-01-30T02:15:05;5.90;99.90
13944;DHT22;7044;53.286;8.534;2024-01-30T02:17:33;5.90;99.90
13944;DHT22;7044;53.286;8.534;2024-01-30T02:20:00;5.20;99.90
13944;DHT22;7044;53.286;8.534;2024-01-30T02:22:29;5.80;99.90
13944;DHT22;7044;53.286;8.534;2024-01-30T02:24:56;5.80;99.90
13944;DHT22;7044;53.286;8.534;2024-01-30T02:27:22;5.70;99.90
13944;DHT22;7044;53.286;8.534;2024-01-30T02:29:49;5.70;99.90
13944;DHT22;7044;53.286;8.534;2024-01-30T02:32:16;5.50;99.90
13944;DHT22;7044;53.286;8.534;2024-01-30T02:34:43;5.50;99.90
13944;DHT22;7044;53.286;8.534;2024-01-30T02:37:10;6.70;99.90
13944;DHT22;7044;53.286;8.534;2024-01-30T02:39:38;5.50;99.90
13944;DHT22;7044;53.286;8.534;2024-01-30T02:42:05;5.60;99.90
13944;DHT22;7044;53.286;8.534;2024-01-30T02:44:32;5.30;99.90
13944;DHT22;7044;53.286;8.534;2024-01-30T02:46:59;5.30;99.90
13944;DHT22;7044;53.286;8.534;2024-01-30T02:49:26;5.40;99.90
13944;DHT22;7044;53.286;8.534;2024-01-30T02:51:53;5.30;99.90
13944;DHT22;7044;53.286;8.534;2024-01-30T02:54:21;5.30;99.90
13944;DHT22;7044;53.286;8.534;2024-01-30T02:56:50;5.30;99.90
13944;DHT22;7044;53.286;8.534;2024-01-30T02:59:17;5.20;99.90
13944;DHT22;7044;53.286;8.534;2024-01-30T03:04:12;5.10;99.90
13944;DHT22;7044;53.286;8.534;2024-01-30T03:06:39;5.10;99.90
13944;DHT22;7044;53.286;8.534;2024-01-30T03:09:11;5.10;99.90
13944;DHT22;7044;53.286;8.534;2024-01-30T03:11:38;5.10;99.90
13944;DHT22;7044;53.286;8.534;2024-01-30T03:14:06;5.10;99.90
13944;DHT22;7044;53.286;8.534;2024-01-30T03:16:33;5.10;99.90
13944;DHT22;7044;53.286;8.534;2024-01-30T03:19:00;5.10;99.90
13944;DHT22;7044;53.286;8.534;2024-01-30T03:21:29;5.00;99.90
13944;DHT22;7044;53.286;8.534;2024-01-30T03:23:56;5.10;99.90
13944;DHT22;7044;53.286;8.534;2024-01-30T03:26:22;5.10;99.90
13944;DHT22;7044;53.286;8.534;2024-01-30T03:28:49;5.20;99.90
13944;DHT22;7044;53.286;8.534;2024-01-30T03:31:18;4.50;99.90
13944;DHT22;7044;53.286;8.534;2024-01-30T03:36:12;5.10;99.90
13944;DHT22;7044;53.286;8.534;2024-01-30T03:38:39;5.10;99.90
13944;DHT22;7044;53.286;8.534;2024-01-30T03:41:07;5.10;99.90
13944;DHT22;7044;53.286;8.534;2024-01-30T03:43:35;5.00;99.90
13944;DHT22;7044;53.286;8.534;2024-01-30T03:46:02;5.90;99.90
13944;DHT22;7044;53.286;8.534;2024-01-30T03:48:30;5.10;99.90
13944;DHT22;7044;53.286;8.534;2024-01-30T03:50:57;5.10;99.90
13944;DHT22;7044;53.286;8.534;2024-01-30T03:53:24;5.10;99.90
13944;DHT22;7044;53.286;8.534;2024-01-30T03:55:51;5.10;99.90
13944;DHT22;7044;53.286;8.534;2024-01-30T03:58:18;5.10;99.90
13944;DHT22;7044;53.286;8.534;2024-01-30T04:00:45;5.20;99.90
13944;DHT22;7044;53.286;8.534;2024-01-30T04:03:12;5.10;99.90
13944;DHT22;7044;53.286;8.534;2024-01-30T04:05:40;5.20;99.90
13944;DHT22;7044;53.286;8.534;2024-01-30T04:08:07;5.20;99.90
13944;DHT22;7044;53.286;8.534;2024-01-30T04:10:34;5.20;99.90
13944;DHT22;7044;53.286;8.534;2024-01-30T04:13:01;4.60;99.90
13944;DHT22;7044;53.286;8.534;2024-01-30T04:15:28;5.20;99.90
13944;DHT22;7044;53.286;8.534;2024-01-30T04:17:57;5.20;99.90
13944;DHT22;7044;53.286;8.534;2024-01-30T04:20:25;5.30;99.90
13944;DHT22;7044;53.286;8.534;2024-01-30T04:22:53;5.50;99.90
13944;DHT22;7044;53.286;8.534;2024-01-30T04:25:20;5.30;99.90
13944;DHT22;7044;53.286;8.534;2024-01-30T04:27:47;5.30;99.90
13944;DHT22;7044;53.286;8.534;2024-01-30T04:30:14;5.20;99.90
13944;DHT22;7044;53.286;8.534;2024-01-30T04:32:41;5.20;99.90
13944;DHT22;7044;53.286;8.534;2024-01-30T04:35:08;5.40;99.90
13944;DHT22;7044;53.286;8.534;2024-01-30T04:37:35;5.30;99.90
13944;DHT22;7044;53.286;8.534;2024-01-30T04:40:03;5.20;99.90
13944;DHT22;7044;53.286;8.534;2024-01-30T04:42:30;5.30;99.90
13944;DHT22;7044;53.286;8.534;2024-01-30T04:44:57;5.30;99.90
13944;DHT22;7044;53.286;8.534;2024-01-30T04:47:24;5.20;99.90
13944;DHT22;7044;53.286;8.534;2024-01-30T04:49:51;5.40;99.90
13944;DHT22;7044;53.286;8.534;2024-01-30T04:52:18;5.20;99.90
13944;DHT22;7044;53.286;8.534;2024-01-30T04:54:46;5.20;99.90
13944;DHT22;7044;53.286;8.534;2024-01-30T04:57:14;5.20;99.90
13944;DHT22;7044;53.286;8.534;2024-01-30T04:59:41;5.10;99.90
13944;DHT22;7044;53.286;8.534;2024-01-30T05:02:08;5.20;99.90
13944;DHT22;7044;53.286;8.534;2024-01-30T05:04:34;5.20;99.90
13944;DHT22;7044;53.286;8.534;2024-01-30T05:07:01;5.20;99.90
13944;DHT22;7044;53.286;8.534;2024-01-30T05:09:28;5.20;99.90
13944;DHT22;7044;53.286;8.534;2024-01-30T05:11:55;5.10;99.90
13944;DHT22;7044;53.286;8.534;2024-01-30T05:14:23;5.10;99.90
13944;DHT22;7044;53.286;8.534;2024-01-30T05:16:50;5.10;99.90
13944;DHT22;7044;53.286;8.534;2024-01-30T05:19:17;5.70;99.90
13944;DHT22;7044;53.286;8.534;2024-01-30T05:21:44;5.10;99.90
13944;DHT22;7044;53.286;8.534;2024-01-30T05:24:11;5.10;99.90
13944;DHT22;7044;53.286;8.534;2024-01-30T05:26:38;5.10;99.90
13944;DHT22;7044;53.286;8.534;2024-01-30T05:29:05;5.10;99.90
13944;DHT22;7044;53.286;8.534;2024-01-30T05:31:33;5.10;99.90
13944;DHT22;7044;53.286;8.534;2024-01-30T05:34:00;5.00;99.90
13944;DHT22;7044;53.286;8.534;2024-01-30T05:36:27;5.10;99.90
13944;DHT22;7044;53.286;8.534;2024-01-30T05:38:54;5.10;99.90
13944;DHT22;7044;53.286;8.534;2024-01-30T05:41:20;5.10;99.90
13944;DHT22;7044;53.286;8.534;2024-01-30T05:43:47;5.20;99.90
13944;DHT22;7044;53.286;8.534;2024-01-30T05:46:14;5.20;99.90
13944;DHT22;7044;53.286;8.534;2024-01-30T05:48:42;5.20;99.90
13944;DHT22;7044;53.286;8.534;2024-01-30T05:51:09;5.20;99.90
13944;DHT22;7044;53.286;8.534;2024-01-30T05:53:36;5.20;99.90
13944;DHT22;7044;53.286;8.534;2024-01-30T05:56:04;5.00;99.90
13944;DHT22;7044;53.286;8.534;2024-01-30T05:58:31;5.20;99.90
13944;DHT22;7044;53.286;8.534;2024-01-30T06:00:58;5.10;99.90
13944;DHT22;7044;53.286;8.534;2024-01-30T06:05:53;5.10;99.90
13944;DHT22;7044;53.286;8.534;2024-01-30T06:08:20;5.20;99.90
13944;DHT22;7044;53.286;8.534;2024-01-30T06:10:47;5.10;99.90
13944;DHT22;7044;53.286;8.534;2024-01-30T06:13:14;5.10;99.90
13944;DHT22;7044;53.286;8.534;2024-01-30T06:15:41;5.10;99.90
13944;DHT22;7044;53.286;8.534;2024-01-30T06:18:08;5.10;99.90
13944;DHT22;7044;53.286;8.534;2024-01-30T06:20:35;5.10;99.90
13944;DHT22;7044;53.286;8.534;2024-01-30T06:23:03;5.10;99.90
13944;DHT22;7044;53.286;8.534;2024-01-30T06:25:30;5.10;99.90
13944;DHT22;7044;53.286;8.534;2024-01-30T06:27:57;5.00;99.90
13944;DHT22;7044;53.286;8.534;2024-01-30T06:30:24;5.00;99.90
13944;DHT22;7044;53.286;8.534;2024-01-30T06:32:51;5.00;99.90
13944;DHT22;7044;53.286;8.534;2024-01-30T06:35:18;5.10;99.90
13944;DHT22;7044;53.286;8.534;2024-01-30T06:37:45;5.50;99.90
13944;DHT22;7044;53.286;8.534;2024-01-30T06:40:14;5.10;99.90
13944;DHT22;7044;53.286;8.534;2024-01-30T06:42:40;6.20;99.90
13944;DHT22;7044;53.286;8.534;2024-01-30T06:45:08;5.20;99.90
13944;DHT22;7044;53.286;8.534;2024-01-30T06:47:35;5.20;99.90
13944;DHT22;7044;53.286;8.534;2024-01-30T06:50:02;5.20;99.90
13944;DHT22;7044;53.286;8.534;2024-01-30T06:52:29;5.30;99.90
13944;DHT22;7044;53.286;8.534;2024-01-30T06:54:56;5.30;99.90
13944;DHT22;7044;53.286;8.534;2024-01-30T06:57:24;5.30;99.90
13944;DHT22;7044;53.286;8.534;2024-01-30T06:59:55;6.10;99.90
13944;DHT22;7044;53.286;8.534;2024-01-30T07:02:22;5.30;99.90
13944;DHT22;7044;53.286;8.534;2024-01-30T07:04:49;4.40;99.90
13944;DHT22;7044;53.286;8.534;2024-01-30T07:07:16;5.30;99.90
13944;DHT22;7044;53.286;8.534;2024-01-30T07:09:43;5.30;99.90
13944;DHT22;7044;53.286;8.534;2024-01-30T07:12:10;5.30;99.90
13944;DHT22;7044;53.286;8.534;2024-01-30T07:14:38;5.40;99.90
13944;DHT22;7044;53.286;8.534;2024-01-30T07:17:05;5.40;99.90
13944;DHT22;7044;53.286;8.534;2024-01-30T07:19:33;5.40;99.90
13944;DHT22;7044;53.286;8.534;2024-01-30T07:22:00;5.40;99.90
13944;DHT22;7044;53.286;8.534;2024-01-30T07:24:27;5.40;99.90
13944;DHT22;7044;53.286;8.534;2024-01-30T07:26:54;5.40;99.90
13944;DHT22;7044;53.286;8.534;2024-01-30T07:29:21;5.40;99.90
13944;DHT22;7044;53.286;8.534;2024-01-30T07:31:49;5.40;99.90
13944;DHT22;7044;53.286;8.534;2024-01-30T07:34:16;5.50;99.90
13944;DHT22;7044;53.286;8.534;2024-01-30T07:36:43;6.30;99.90
13944;DHT22;7044;53.286;8.534;2024-01-30T07:39:10;5.40;99.90
13944;DHT22;7044;53.286;8.534;2024-01-30T07:41:36;5.90;99.90
13944;DHT22;7044;53.286;8.534;2024-01-30T07:44:03;5.40;99.90
13944;DHT22;7044;53.286;8.534;2024-01-30T07:46:30;5.50;99.90
13944;DHT22;7044;53.286;8.534;2024-01-30T07:48:59;5.50;99.90
13944;DHT22;7044;53.286;8.534;2024-01-30T07:51:25;5.20;99.90
13944;DHT22;7044;53.286;8.534;2024-01-30T07:53:54;5.60;99.90
13944;DHT22;7044;53.286;8.534;2024-01-30T07:56:21;5.70;99.90
13944;DHT22;7044;53.286;8.534;2024-01-30T07:58:47;5.80;99.90
13944;DHT22;7044;53.286;8.534;2024-01-30T08:01:15;5.70;99.90
13944;DHT22;7044;53.286;8.534;2024-01-30T08:03:42;5.80;99.90
13944;DHT22;7044;53.286;8.534;2024-01-30T08:06:11;5.80;99.90
13944;DHT22;7044;53.286;8.534;2024-01-30T08:08:38;5.80;99.90
13944;DHT22;7044;53.286;8.534;2024-01-30T08:11:05;5.90;99.90
13944;DHT22;7044;53.286;8.534;2024-01-30T08:13:33;5.90;99.90
13944;DHT22;7044;53.286;8.534;2024-01-30T08:16:00;6.60;99.90
13944;DHT22;7044;53.286;8.534;2024-01-30T08:18:26;6.80;99.90
13944;DHT22;7044;53.286;8.534;2024-01-30T08:20:53;6.00;99.90
13944;DHT22;7044;53.286;8.534;2024-01-30T08:23:22;6.00;99.90
13944;DHT22;7044;53.286;8.534;2024-01-30T08:25:48;6.10;99.90
13944;DHT22;7044;53.286;8.534;2024-01-30T08:28:15;6.10;99.90
13944;DHT22;7044;53.286;8.534;2024-01-30T08:30:42;6.10;99.90
13944;DHT22;7044;53.286;8.534;2024-01-30T08:33:09;6.10;99.90
13944;DHT22;7044;53.286;8.534;2024-01-30T08:35:36;6.20;99.90
13944;DHT22;7044;53.286;8.534;2024-01-30T08:38:03;6.20;99.90
13944;DHT22;7044;53.286;8.534;2024-01-30T08:40:32;6.20;99.90
13944;DHT22;7044;53.286;8.534;2024-01-30T08:42:59;6.20;99.90
13944;DHT22;7044;53.286;8.534;2024-01-30T08:45:25;6.30;99.90
13944;DHT22;7044;53.286;8.534;2024-01-30T08:47:52;6.20;99.90
13944;DHT22;7044;53.286;8.534;2024-01-30T08:50:19;6.50;99.90
13944;DHT22;7044;53.286;8.534;2024-01-30T08:55:13;6.40;99.90
13944;DHT22;7044;53.286;8.534;2024-01-30T08:57:41;6.40;99.90
13944;DHT22;7044;53.286;8.534;2024-01-30T09:00:09;6.80;99.90
13944;DHT22;7044;53.286;8.534;2024-01-30T09:02:36;6.40;99.90
13944;DHT22;7044;53.286;8.534;2024-01-30T09:05:04;6.50;99.90
13944;DHT22;7044;53.286;8.534;2024-01-30T09:07:30;6.50;99.90
13944;DHT22;7044;53.286;8.534;2024-01-30T09:09:57;6.50;99.90
13944;DHT22;7044;53.286;8.534;2024-01-30T09:12:24;6.60;99.90
13944;DHT22;7044;53.286;8.534;2024-01-30T09:14:52;6.70;99.90
13944;DHT22;7044;53.286;8.534;2024-01-30T09:17:20;6.70;99.90
13944;DHT22;7044;53.286;8.534;2024-01-30T09:19:47;6.70;99.90
13944;DHT22;7044;53.286;8.534;2024-01-30T09:22:14;6.80;99.90
13944;DHT22;7044;53.286;8.534;2024-01-30T09:24:41;6.80;99.90
13944;DHT22;7044;53.286;8.534;2024-01-30T09:27:07;6.90;99.90
13944;DHT22;7044;53.286;8.534;2024-01-30T09:29:34;6.80;99.90
13944;DHT22;7044;53.286;8.534;2024-01-30T09:32:04;6.90;99.90
13944;DHT22;7044;53.286;8.534;2024-01-30T09:34:31;6.90;99.90
13944;DHT22;7044;53.286;8.534;2024-01-30T09:36:58;7.00;99.90
13944;DHT22;7044;53.286;8.534;2024-01-30T09:39:25;7.00;99.90
13944;DHT22;7044;53.286;8.534;2024-01-30T09:42:00;7.00;99.90
13944;DHT22;7044;53.286;8.534;2024-01-30T09:44:29;8.10;99.90
13944;DHT22;7044;53.286;8.534;2024-01-30T09:46:56;7.20;99.90
13944;DHT22;7044;53.286;8.534;2024-01-30T09:49:32;7.20;99.90
13944;DHT22;7044;53.286;8.534;2024-01-30T09:51:59;7.30;99.90
13944;DHT22;7044;53.286;8.534;2024-01-30T09:54:29;7.30;99.90
13944;DHT22;7044;53.286;8.534;2024-01-30T09:56:56;7.30;99.90
13944;DHT22;7044;53.286;8.534;2024-01-30T09:59:23;7.40;99.90
13944;DHT22;7044;53.286;8.534;2024-01-30T10:01:50;7.40;99.90
13944;DHT22;7044;53.286;8.534;2024-01-30T10:04:17;7.40;99.90
13944;DHT22;7044;53.286;8.534;2024-01-30T10:06:46;7.50;99.90
13944;DHT22;7044;53.286;8.534;2024-01-30T10:09:14;7.40;99.90
13944;DHT22;7044;53.286;8.534;2024-01-30T10:11:40;7.50;99.90
13944;DHT22;7044;53.286;8.534;2024-01-30T10:14:07;7.50;99.90
13944;DHT22;7044;53.286;8.534;2024-01-30T10:16:34;7.50;99.90
13944;DHT22;7044;53.286;8.534;2024-01-30T10:19:01;7.50;99.90
13944;DHT22;7044;53.286;8.534;2024-01-30T10:21:30;7.60;99.90
13944;DHT22;7044;53.286;8.534;2024-01-30T10:23:58;7.60;99.90
13944;DHT22;7044;53.286;8.534;2024-01-30T10:26:25;7.70;99.90
13944;DHT22;7044;53.286;8.534;2024-01-30T10:28:52;7.70;99.90
13944;DHT22;7044;53.286;8.534;2024-01-30T10:33:46;7.80;99.90
13944;DHT22;7044;53.286;8.534;2024-01-30T10:36:14;7.80;99.90
13944;DHT22;7044;53.286;8.534;2024-01-30T10:38:42;7.90;99.90
13944;DHT22;7044;53.286;8.534;2024-01-30T10:41:15;7.90;99.90
13944;DHT22;7044;53.286;8.534;2024-01-30T10:43:50;8.00;99.90
13944;DHT22;7044;53.286;8.534;2024-01-30T10:46:20;8.00;99.90
13944;DHT22;7044;53.286;8.534;2024-01-30T10:48:51;8.00;99.90
13944;DHT22;7044;53.286;8.534;2024-01-30T10:51:24;8.10;99.90
13944;DHT22;7044;53.286;8.534;2024-01-30T10:53:53;8.20;99.90
13944;DHT22;7044;53.286;8.534;2024-01-30T10:56:22;8.20;99.90
13944;DHT22;7044;53.286;8.534;2024-01-30T10:58:50;8.20;99.90
13944;DHT22;7044;53.286;8.534;2024-01-30T11:01:18;8.30;99.90
13944;DHT22;7044;53.286;8.534;2024-01-30T11:03:46;8.30;99.90
13944;DHT22;7044;53.286;8.534;2024-01-30T11:06:14;8.30;99.90
13944;DHT22;7044;53.286;8.534;2024-01-30T11:08:44;8.30;99.90
13944;DHT22;7044;53.286;8.534;2024-01-30T11:11:11;8.40;99.90
13944;DHT22;7044;53.286;8.534;2024-01-30T11:13:40;8.30;99.90
13944;DHT22;7044;53.286;8.534;2024-01-30T11:16:11;8.40;99.90
13944;DHT22;7044;53.286;8.534;2024-01-30T11:18:38;8.50;99.90
13944;DHT22;7044;53.286;8.534;2024-01-30T11:21:06;8.40;99.90
13944;DHT22;7044;53.286;8.534;2024-01-30T11:23:34;8.50;99.90
13944;DHT22;7044;53.286;8.534;2024-01-30T11:26:01;8.50;99.90
13944;DHT22;7044;53.286;8.534;2024-01-30T11:28:32;8.50;99.90
13944;DHT22;7044;53.286;8.534;2024-01-30T11:31:04;8.50;99.90
13944;DHT22;7044;53.286;8.534;2024-01-30T11:33:32;8.50;99.90
13944;DHT22;7044;53.286;8.534;2024-01-30T11:36:00;8.50;99.90
13944;DHT22;7044;53.286;8.534;2024-01-30T11:38:28;8.50;99.90
13944;DHT22;7044;53.286;8.534;2024-01-30T11:40:55;8.60;99.90
13944;DHT22;7044;53.286;8.534;2024-01-30T11:43:23;8.60;99.90
13944;DHT22;7044;53.286;8.534;2024-01-30T11:45:50;8.60;99.90
13944;DHT22;7044;53.286;8.534;2024-01-30T11:48:18;8.60;99.90
13944;DHT22;7044;53.286;8.534;2024-01-30T11:50:46;8.60;99.90
13944;DHT22;7044;53.286;8.534;2024-01-30T11:53:13;8.70;99.90
13944;DHT22;7044;53.286;8.534;2024-01-30T11:55:40;8.70;99.90
13944;DHT22;7044;53.286;8.534;2024-01-30T11:58:07;8.80;99.90
13944;DHT22;7044;53.286;8.534;2024-01-30T12:00:34;8.90;99.90
13944;DHT22;7044;53.286;8.534;2024-01-30T12:03:01;8.90;99.90
13944;DHT22;7044;53.286;8.534;2024-01-30T12:05:30;8.90;99.90
13944;DHT22;7044;53.286;8.534;2024-01-30T12:07:57;8.90;99.90
13944;DHT22;7044;53.286;8.534;2024-01-30T12:10:25;8.90;99.90
13944;DHT22;7044;53.286;8.534;2024-01-30T12:12:54;8.90;99.90
13944;DHT22;7044;53.286;8.534;2024-01-30T12:15:22;8.90;99.90
13944;DHT22;7044;53.286;8.534;2024-01-30T12:17:49;9.00;99.90
13944;DHT22;7044;53.286;8.534;2024-01-30T12:20:18;9.00;99.90
13944;DHT22;7044;53.286;8.534;2024-01-30T12:22:47;9.10;99.90
13944;DHT22;7044;53.286;8.534;2024-01-30T12:25:15;9.10;99.90
13944;DHT22;7044;53.286;8.534;2024-01-30T12:27:43;9.30;99.90
13944;DHT22;7044;53.286;8.534;2024-01-30T12:30:12;9.20;99.90
13944;DHT22;7044;53.286;8.534;2024-01-30T12:32:41;9.20;99.90
13944;DHT22;7044;53.286;8.534;2024-01-30T12:35:10;9.30;99.90
13944;DHT22;7044;53.286;8.534;2024-01-30T12:37:37;9.30;99.90
13944;DHT22;7044;53.286;8.534;2024-01-30T12:40:07;9.40;99.90
13944;DHT22;7044;53.286;8.534;2024-01-30T12:42:35;9.30;99.90
13944;DHT22;7044;53.286;8.534;2024-01-30T12:45:02;8.50;99.90
13944;DHT22;7044;53.286;8.534;2024-01-30T12:47:28;9.30;99.90
13944;DHT22;7044;53.286;8.534;2024-01-30T12:49:55;9.30;99.90
13944;DHT22;7044;53.286;8.534;2024-01-30T12:52:22;9.30;99.90
13944;DHT22;7044;53.286;8.534;2024-01-30T12:54:49;9.10;99.90
13944;DHT22;7044;53.286;8.534;2024-01-30T12:57:18;9.40;99.90
13944;DHT22;7044;53.286;8.534;2024-01-30T12:59:45;9.40;99.90
13944;DHT22;7044;53.286;8.534;2024-01-30T13:02:13;9.40;99.90
13944;DHT22;7044;53.286;8.534;2024-01-30T13:04:40;9.30;99.90
13944;DHT22;7044;53.286;8.534;2024-01-30T13:07:07;9.40;99.90
13944;DHT22;7044;53.286;8.534;2024-01-30T13:09:34;9.40;99.90
13944;DHT22;7044;53.286;8.534;2024-01-30T13:12:01;9.40;99.90
13944;DHT22;7044;53.286;8.534;2024-01-30T13:14:29;9.40;99.90
13944;DHT22;7044;53.286;8.534;2024-01-30T13:16:56;9.50;99.90
13944;DHT22;7044;53.286;8.534;2024-01-30T13:19:23;10.50;99.90
13944;DHT22;7044;53.286;8.534;2024-01-30T13:21:49;9.40;99.90
13944;DHT22;7044;53.286;8.534;2024-01-30T13:24:16;9.40;99.90
13944;DHT22;7044;53.286;8.534;2024-01-30T13:26:46;9.40;99.90
13944;DHT22;7044;53.286;8.534;2024-01-30T13:31:42;9.40;99.90
13944;DHT22;7044;53.286;8.534;2024-01-30T13:34:09;9.40;99.90
13944;DHT22;7044;53.286;8.534;2024-01-30T13:36:36;9.40;99.90
13944;DHT22;7044;53.286;8.534;2024-01-30T13:39:03;9.40;99.90
13944;DHT22;7044;53.286;8.534;2024-01-30T13:41:34;9.40;99.90
13944;DHT22;7044;53.286;8.534;2024-01-30T13:44:01;9.40;99.90
13944;DHT22;7044;53.286;8.534;2024-01-30T13:46:29;9.50;99.90
13944;DHT22;7044;53.286;8.534;2024-01-30T13:48:57;9.50;99.90
13944;DHT22;7044;53.286;8.534;2024-01-30T13:51:24;9.50;99.90
13944;DHT22;7044;53.286;8.534;2024-01-30T13:53:51;9.50;99.90
13944;DHT22;7044;53.286;8.534;2024-01-30T13:56:18;9.40;99.90
13944;DHT22;7044;53.286;8.534;2024-01-30T13:58:45;9.50;99.90
13944;DHT22;7044;53.286;8.534;2024-01-30T14:01:12;9.50;99.90
13944;DHT22;7044;53.286;8.534;2024-01-30T14:03:39;9.50;99.90
13944;DHT22;7044;53.286;8.534;2024-01-30T14:06:08;9.50;99.90
13944;DHT22;7044;53.286;8.534;2024-01-30T14:08:34;9.60;99.90
13944;DHT22;7044;53.286;8.534;2024-01-30T14:11:01;9.70;99.90
13944;DHT22;7044;53.286;8.534;2024-01-30T14:13:29;9.60;99.90
13944;DHT22;7044;53.286;8.534;2024-01-30T14:15:56;9.60;99.90
13944;DHT22;7044;53.286;8.534;2024-01-30T14:18:23;9.70;99.90
13944;DHT22;7044;53.286;8.534;2024-01-30T14:20:51;9.70;99.90
13944;DHT22;7044;53.286;8.534;2024-01-30T14:23:19;9.70;99.90
13944;DHT22;7044;53.286;8.534;2024-01-30T14:25:47;9.60;99.90
13944;DHT22;7044;53.286;8.534;2024-01-30T14:28:14;9.70;99.90
13944;DHT22;7044;53.286;8.534;2024-01-30T14:30:41;9.70;99.90
13944;DHT22;7044;53.286;8.534;2024-01-30T14:33:08;9.60;99.90
13944;DHT22;7044;53.286;8.534;2024-01-30T14:35:35;9.60;99.90
13944;DHT22;7044;53.286;8.534;2024-01-30T14:38:02;9.60;99.90
13944;DHT22;7044;53.286;8.534;2024-01-30T14:40:31;9.60;99.90
13944;DHT22;7044;53.286;8.534;2024-01-30T14:42:58;9.60;99.90
13944;DHT22;7044;53.286;8.534;2024-01-30T14:45:25;9.60;99.90
13944;DHT22;7044;53.286;8.534;2024-01-30T14:47:52;9.60;99.90
13944;DHT22;7044;53.286;8.534;2024-01-30T14:50:21;9.70;99.90
13944;DHT22;7044;53.286;8.534;2024-01-30T14:52:48;9.70;99.90
13944;DHT22;7044;53.286;8.534;2024-01-30T14:55:15;9.70;99.90
13944;DHT22;7044;53.286;8.534;2024-01-30T14:57:44;9.70;99.90
13944;DHT22;7044;53.286;8.534;2024-01-30T15:00:12;10.20;99.90
13944;DHT22;7044;53.286;8.534;2024-01-30T15:02:41;9.70;99.90
13944;DHT22;7044;53.286;8.534;2024-01-30T15:05:08;9.70;99.90
13944;DHT22;7044;53.286;8.534;2024-01-30T15:07:36;9.70;99.90
13944;DHT22;7044;53.286;8.534;2024-01-30T15:10:03;9.70;99.90
13944;DHT22;7044;53.286;8.534;2024-01-30T15:12:30;9.70;99.90
13944;DHT22;7044;53.286;8.534;2024-01-30T15:14:59;9.70;99.90
13944;DHT22;7044;53.286;8.534;2024-01-30T15:17:26;9.70;99.90
13944;DHT22;7044;53.286;8.534;2024-01-30T15:19:52;9.70;99.90
13944;DHT22;7044;53.286;8.534;2024-01-30T15:22:19;9.70;99.90
13944;DHT22;7044;53.286;8.534;2024-01-30T15:24:46;9.70;99.90
13944;DHT22;7044;53.286;8.534;2024-01-30T15:27:13;9.70;99.90
13944;DHT22;7044;53.286;8.534;2024-01-30T15:29:40;9.70;99.90
13944;DHT22;7044;53.286;8.534;2024-01-30T15:32:08;9.70;99.90
13944;DHT22;7044;53.286;8.534;2024-01-30T15:34:35;9.70;99.90
13944;DHT22;7044;53.286;8.534;2024-01-30T15:37:02;9.70;99.90
13944;DHT22;7044;53.286;8.534;2024-01-30T15:39:29;9.70;99.90
13944;DHT22;7044;53.286;8.534;2024-01-30T15:41:56;9.70;99.90
13944;DHT22;7044;53.286;8.534;2024-01-30T15:44:24;9.00;99.90
13944;DHT22;7044;53.286;8.534;2024-01-30T15:46:51;9.70;99.90
13944;DHT22;7044;53.286;8.534;2024-01-30T15:49:19;9.70;99.90
13944;DHT22;7044;53.286;8.534;2024-01-30T15:51:46;9.70;99.90
13944;DHT22;7044;53.286;8.534;2024-01-30T15:54:13;9.80;99.90
13944;DHT22;7044;53.286;8.534;2024-01-30T15:56:40;9.70;99.90
13944;DHT22;7044;53.286;8.534;2024-01-30T15:59:07;9.60;99.90
13944;DHT22;7044;53.286;8.534;2024-01-30T16:01:34;9.60;99.90
13944;DHT22;7044;53.286;8.534;2024-01-30T16:04:01;9.60;99.90
13944;DHT22;7044;53.286;8.534;2024-01-30T16:06:29;9.60;99.90
13944;DHT22;7044;53.286;8.534;2024-01-30T16:08:56;9.60;99.90
13944;DHT22;7044;53.286;8.534;2024-01-30T16:11:23;9.60;99.90
13944;DHT22;7044;53.286;8.534;2024-01-30T16:13:49;9.60;99.90
13944;DHT22;7044;53.286;8.534;2024-01-30T16:16:18;9.60;99.90